sensor_id;sensor_type;location;lat;lon;timestamp;temperature;humidity
72338;DHT22;60294;64.134;-21.862;2022-08-02T00:00:11;9.20;69.20
72338;DHT22;60294;64.134;-21.862;2022-08-02T00:02:39;9.10;67.90
72338;DHT22;60294;64.134;-21.862;2022-08-02T00:05:05;9.10;68.50
72338;DHT22;60294;64.134;-21.862;2022-08-02T00:07:31;9.10;68.60
72338;DHT22;60294;64.134;-21.862;2022-08-02T00:09:57;9.10;68.00
72338;DHT22;60294;64.134;-21.862;2022-08-02T00:12:23;9.40;68.30
72338;DHT22;60294;64.134;-21.862;2022-08-02T00:14:49;9.40;67.60
72338;DHT22;60294;64.134;-21.862;2022-08-02T00:17:14;9.40;66.80
72338;DHT22;60294;64.134;-21.862;2022-08-02T00:19:40;9.50;65.90
72338;DHT22;60294;64.134;-21.862;2022-08-02T00:22:07;9.50;66.40
72338;DHT22;60294;64.134;-21.862;2022-08-02T00:24:32;9.50;66.50
72338;DHT22;60294;64.134;-21.862;2022-08-02T00:26:58;9.40;66.80
72338;DHT22;60294;64.134;-21.862;2022-08-02T00:29:24;9.40;67.00
72338;DHT22;60294;64.134;-21.862;2022-08-02T00:31:50;9.30;69.60
72338;DHT22;60294;64.134;-21.862;2022-08-02T00:34:16;9.10;69.40
72338;DHT22;60294;64.134;-21.862;2022-08-02T00:36:42;9.10;70.00
72338;DHT22;60294;64.134;-21.862;2022-08-02T00:39:08;9.00;70.40
72338;DHT22;60294;64.134;-21.862;2022-08-02T00:41:49;8.90;70.60
72338;DHT22;60294;64.134;-21.862;2022-08-02T00:44:17;8.90;70.70
72338;DHT22;60294;64.134;-21.862;2022-08-02T00:46:43;9.00;70.30
72338;DHT22;60294;64.134;-21.862;2022-08-02T00:49:10;9.00;70.30
72338;DHT22;60294;64.134;-21.862;2022-08-02T00:51:36;8.90;70.50
72338;DHT22;60294;64.134;-21.862;2022-08-02T00:54:02;8.90;70.80
72338;DHT22;60294;64.134;-21.862;2022-08-02T00:56:28;8.90;71.20
72338;DHT22;60294;64.134;-21.862;2022-08-02T00:58:54;8.80;71.40
72338;DHT22;60294;64.134;-21.862;2022-08-02T01:01:20;8.80;72.20
72338;DHT22;60294;64.134;-21.862;2022-08-02T01:04:10;8.90;72.10
72338;DHT22;60294;64.134;-21.862;2022-08-02T01:06:38;8.80;71.80
72338;DHT22;60294;64.134;-21.862;2022-08-02T01:09:05;8.90;71.50
72338;DHT22;60294;64.134;-21.862;2022-08-02T01:11:31;8.90;71.10
72338;DHT22;60294;64.134;-21.862;2022-08-02T01:14:01;9.00;71.10
72338;DHT22;60294;64.134;-21.862;2022-08-02T01:16:31;9.00;71.50
72338;DHT22;60294;64.134;-21.862;2022-08-02T01:19:20;9.00;70.90
72338;DHT22;60294;64.134;-21.862;2022-08-02T01:29:52;8.90;71.80
72338;DHT22;60294;64.134;-21.862;2022-08-02T01:32:26;8.80;71.40
72338;DHT22;60294;64.134;-21.862;2022-08-02T01:35:19;8.80;72.40
72338;DHT22;60294;64.134;-21.862;2022-08-02T01:37:58;8.70;72.70
72338;DHT22;60294;64.134;-21.862;2022-08-02T01:40:30;8.90;72.70
72338;DHT22;60294;64.134;-21.862;2022-08-02T01:42:57;8.80;72.30
72338;DHT22;60294;64.134;-21.862;2022-08-02T01:45:29;8.80;72.80
72338;DHT22;60294;64.134;-21.862;2022-08-02T01:47:56;8.90;72.50
72338;DHT22;60294;64.134;-21.862;2022-08-02T01:50:26;8.90;73.10
72338;DHT22;60294;64.134;-21.862;2022-08-02T01:52:55;8.90;73.20
72338;DHT22;60294;64.134;-21.862;2022-08-02T01:55:25;9.10;73.40
72338;DHT22;60294;64.134;-21.862;2022-08-02T01:57:57;9.10;72.90
72338;DHT22;60294;64.134;-21.862;2022-08-02T02:00:26;9.00;73.20
72338;DHT22;60294;64.134;-21.862;2022-08-02T02:02:56;9.00;73.20
72338;DHT22;60294;64.134;-21.862;2022-08-02T02:05:23;8.90;73.50
72338;DHT22;60294;64.134;-21.862;2022-08-02T02:07:56;8.90;73.60
72338;DHT22;60294;64.134;-21.862;2022-08-02T02:10:26;8.90;74.00
72338;DHT22;60294;64.134;-21.862;2022-08-02T02:12:54;8.90;74.40
72338;DHT22;60294;64.134;-21.862;2022-08-02T02:15:22;8.90;74.80
72338;DHT22;60294;64.134;-21.862;2022-08-02T02:17:51;8.80;74.90
72338;DHT22;60294;64.134;-21.862;2022-08-02T02:20:19;8.80;75.40
72338;DHT22;60294;64.134;-21.862;2022-08-02T02:22:46;8.70;75.50
72338;DHT22;60294;64.134;-21.862;2022-08-02T02:25:14;8.70;75.60
72338;DHT22;60294;64.134;-21.862;2022-08-02T02:28:00;8.70;75.70
72338;DHT22;60294;64.134;-21.862;2022-08-02T02:30:28;8.60;76.00
72338;DHT22;60294;64.134;-21.862;2022-08-02T02:32:59;8.60;76.60
72338;DHT22;60294;64.134;-21.862;2022-08-02T02:35:29;8.60;76.60
72338;DHT22;60294;64.134;-21.862;2022-08-02T02:37:58;8.50;76.70
72338;DHT22;60294;64.134;-21.862;2022-08-02T02:40:26;8.50;76.40
72338;DHT22;60294;64.134;-21.862;2022-08-02T02:42:52;8.50;76.60
72338;DHT22;60294;64.134;-21.862;2022-08-02T02:45:20;8.50;77.20
72338;DHT22;60294;64.134;-21.862;2022-08-02T02:47:46;8.50;77.30
72338;DHT22;60294;64.134;-21.862;2022-08-02T02:50:16;8.60;77.50
72338;DHT22;60294;64.134;-21.862;2022-08-02T02:52:43;8.60;77.40
72338;DHT22;60294;64.134;-21.862;2022-08-02T02:55:10;8.50;77.20
72338;DHT22;60294;64.134;-21.862;2022-08-02T02:57:37;8.60;77.20
72338;DHT22;60294;64.134;-21.862;2022-08-02T03:00:10;8.60;77.40
72338;DHT22;60294;64.134;-21.862;2022-08-02T03:02:42;8.60;75.40
72338;DHT22;60294;64.134;-21.862;2022-08-02T03:05:09;8.70;75.40
72338;DHT22;60294;64.134;-21.862;2022-08-02T03:07:36;8.80;75.70
72338;DHT22;60294;64.134;-21.862;2022-08-02T03:10:04;8.80;75.00
72338;DHT22;60294;64.134;-21.862;2022-08-02T03:12:32;8.70;75.60
72338;DHT22;60294;64.134;-21.862;2022-08-02T03:15:00;8.60;76.10
72338;DHT22;60294;64.134;-21.862;2022-08-02T03:17:37;8.60;76.50
72338;DHT22;60294;64.134;-21.862;2022-08-02T03:20:13;8.60;76.90
72338;DHT22;60294;64.134;-21.862;2022-08-02T03:22:39;8.50;77.20
72338;DHT22;60294;64.134;-21.862;2022-08-02T03:25:07;8.40;77.00
72338;DHT22;60294;64.134;-21.862;2022-08-02T03:27:33;8.50;77.40
72338;DHT22;60294;64.134;-21.862;2022-08-02T03:29:59;8.50;76.10
72338;DHT22;60294;64.134;-21.862;2022-08-02T03:32:25;8.50;76.20
72338;DHT22;60294;64.134;-21.862;2022-08-02T03:34:51;8.50;75.90
72338;DHT22;60294;64.134;-21.862;2022-08-02T03:37:18;8.50;76.30
72338;DHT22;60294;64.134;-21.862;2022-08-02T03:39:44;8.50;76.20
72338;DHT22;60294;64.134;-21.862;2022-08-02T03:42:11;8.50;73.90
72338;DHT22;60294;64.134;-21.862;2022-08-02T03:44:37;8.60;73.80
72338;DHT22;60294;64.134;-21.862;2022-08-02T03:47:05;8.60;74.20
72338;DHT22;60294;64.134;-21.862;2022-08-02T03:49:32;8.50;74.10
72338;DHT22;60294;64.134;-21.862;2022-08-02T03:52:00;8.50;74.20
72338;DHT22;60294;64.134;-21.862;2022-08-02T03:54:26;8.50;74.60
72338;DHT22;60294;64.134;-21.862;2022-08-02T03:56:52;8.40;75.10
72338;DHT22;60294;64.134;-21.862;2022-08-02T03:59:18;8.40;76.00
72338;DHT22;60294;64.134;-21.862;2022-08-02T04:01:44;8.40;75.30
72338;DHT22;60294;64.134;-21.862;2022-08-02T04:04:10;8.40;75.10
72338;DHT22;60294;64.134;-21.862;2022-08-02T04:06:36;8.40;75.50
72338;DHT22;60294;64.134;-21.862;2022-08-02T04:09:03;8.50;74.80
72338;DHT22;60294;64.134;-21.862;2022-08-02T04:11:29;8.60;74.20
72338;DHT22;60294;64.134;-21.862;2022-08-02T04:14:03;8.60;73.80
72338;DHT22;60294;64.134;-21.862;2022-08-02T04:16:45;8.60;73.70
72338;DHT22;60294;64.134;-21.862;2022-08-02T04:21:50;8.60;73.60
72338;DHT22;60294;64.134;-21.862;2022-08-02T04:24:22;8.60;73.50
72338;DHT22;60294;64.134;-21.862;2022-08-02T04:26:49;8.50;73.20
72338;DHT22;60294;64.134;-21.862;2022-08-02T04:29:16;8.50;73.40
72338;DHT22;60294;64.134;-21.862;2022-08-02T04:31:43;8.50;73.90
72338;DHT22;60294;64.134;-21.862;2022-08-02T04:34:09;8.50;72.50
72338;DHT22;60294;64.134;-21.862;2022-08-02T04:36:35;8.50;73.40
72338;DHT22;60294;64.134;-21.862;2022-08-02T04:39:01;8.60;73.30
72338;DHT22;60294;64.134;-21.862;2022-08-02T04:41:41;8.70;73.00
72338;DHT22;60294;64.134;-21.862;2022-08-02T04:44:07;8.70;72.20
72338;DHT22;60294;64.134;-21.862;2022-08-02T04:46:35;8.70;72.10
72338;DHT22;60294;64.134;-21.862;2022-08-02T04:49:01;8.60;72.40
72338;DHT22;60294;64.134;-21.862;2022-08-02T04:51:27;8.60;73.10
72338;DHT22;60294;64.134;-21.862;2022-08-02T04:53:53;8.60;72.40
72338;DHT22;60294;64.134;-21.862;2022-08-02T04:56:19;8.60;72.90
72338;DHT22;60294;64.134;-21.862;2022-08-02T04:58:45;8.50;72.90
72338;DHT22;60294;64.134;-21.862;2022-08-02T05:01:10;8.50;73.50
72338;DHT22;60294;64.134;-21.862;2022-08-02T05:03:36;8.40;73.80
72338;DHT22;60294;64.134;-21.862;2022-08-02T05:06:02;8.40;73.40
72338;DHT22;60294;64.134;-21.862;2022-08-02T05:08:28;8.40;73.30
72338;DHT22;60294;64.134;-21.862;2022-08-02T05:10:54;8.40;73.30
72338;DHT22;60294;64.134;-21.862;2022-08-02T05:13:20;8.50;73.20
72338;DHT22;60294;64.134;-21.862;2022-08-02T05:15:49;8.50;73.30
72338;DHT22;60294;64.134;-21.862;2022-08-02T05:18:16;8.40;73.70
72338;DHT22;60294;64.134;-21.862;2022-08-02T05:20:41;8.50;74.00
72338;DHT22;60294;64.134;-21.862;2022-08-02T05:23:07;8.50;74.00
72338;DHT22;60294;64.134;-21.862;2022-08-02T05:25:33;8.60;73.80
72338;DHT22;60294;64.134;-21.862;2022-08-02T05:27:59;8.60;72.90
72338;DHT22;60294;64.134;-21.862;2022-08-02T05:30:25;8.50;72.50
72338;DHT22;60294;64.134;-21.862;2022-08-02T05:32:50;8.40;73.00
72338;DHT22;60294;64.134;-21.862;2022-08-02T05:35:20;8.40;73.40
72338;DHT22;60294;64.134;-21.862;2022-08-02T05:37:47;8.40;73.50
72338;DHT22;60294;64.134;-21.862;2022-08-02T05:40:13;8.40;73.80
72338;DHT22;60294;64.134;-21.862;2022-08-02T05:42:40;8.40;74.10
72338;DHT22;60294;64.134;-21.862;2022-08-02T05:45:06;8.30;73.80
72338;DHT22;60294;64.134;-21.862;2022-08-02T05:47:33;8.40;74.00
72338;DHT22;60294;64.134;-21.862;2022-08-02T05:49:59;8.40;73.80
72338;DHT22;60294;64.134;-21.862;2022-08-02T05:52:28;8.40;73.70
72338;DHT22;60294;64.134;-21.862;2022-08-02T05:57:36;8.50;73.60
72338;DHT22;60294;64.134;-21.862;2022-08-02T06:00:11;8.50;73.60
72338;DHT22;60294;64.134;-21.862;2022-08-02T06:05:20;8.40;73.00
72338;DHT22;60294;64.134;-21.862;2022-08-02T06:07:47;8.40;73.90
72338;DHT22;60294;64.134;-21.862;2022-08-02T06:10:16;8.40;74.50
72338;DHT22;60294;64.134;-21.862;2022-08-02T06:12:50;8.50;74.60
72338;DHT22;60294;64.134;-21.862;2022-08-02T06:15:18;8.60;74.50
72338;DHT22;60294;64.134;-21.862;2022-08-02T06:17:45;8.60;73.60
72338;DHT22;60294;64.134;-21.862;2022-08-02T06:20:12;8.80;72.90
72338;DHT22;60294;64.134;-21.862;2022-08-02T06:22:43;8.90;72.20
72338;DHT22;60294;64.134;-21.862;2022-08-02T06:25:12;8.90;72.00
72338;DHT22;60294;64.134;-21.862;2022-08-02T06:27:39;8.80;72.30
72338;DHT22;60294;64.134;-21.862;2022-08-02T06:30:08;8.80;72.90
72338;DHT22;60294;64.134;-21.862;2022-08-02T06:32:34;8.80;72.50
72338;DHT22;60294;64.134;-21.862;2022-08-02T06:35:02;8.80;72.40
72338;DHT22;60294;64.134;-21.862;2022-08-02T06:37:41;8.80;72.90
72338;DHT22;60294;64.134;-21.862;2022-08-02T06:45:27;8.90;74.00
72338;DHT22;60294;64.134;-21.862;2022-08-02T06:47:53;8.90;73.10
72338;DHT22;60294;64.134;-21.862;2022-08-02T06:50:19;9.00;73.00
72338;DHT22;60294;64.134;-21.862;2022-08-02T06:52:45;9.10;72.60
72338;DHT22;60294;64.134;-21.862;2022-08-02T06:55:11;9.10;72.70
72338;DHT22;60294;64.134;-21.862;2022-08-02T06:57:37;9.30;72.50
72338;DHT22;60294;64.134;-21.862;2022-08-02T07:00:05;9.20;72.40
72338;DHT22;60294;64.134;-21.862;2022-08-02T07:02:34;9.10;71.80
72338;DHT22;60294;64.134;-21.862;2022-08-02T07:05:01;9.20;72.10
72338;DHT22;60294;64.134;-21.862;2022-08-02T07:07:28;9.10;72.10
72338;DHT22;60294;64.134;-21.862;2022-08-02T07:09:54;9.20;72.10
72338;DHT22;60294;64.134;-21.862;2022-08-02T07:12:20;9.20;71.80
72338;DHT22;60294;64.134;-21.862;2022-08-02T07:14:46;9.30;72.10
72338;DHT22;60294;64.134;-21.862;2022-08-02T07:17:12;9.20;71.60
72338;DHT22;60294;64.134;-21.862;2022-08-02T07:19:38;9.20;71.80
72338;DHT22;60294;64.134;-21.862;2022-08-02T07:22:04;9.40;71.40
72338;DHT22;60294;64.134;-21.862;2022-08-02T07:24:30;9.40;70.40
72338;DHT22;60294;64.134;-21.862;2022-08-02T07:26:57;9.70;69.70
72338;DHT22;60294;64.134;-21.862;2022-08-02T07:29:23;9.60;69.90
72338;DHT22;60294;64.134;-21.862;2022-08-02T07:31:49;9.70;69.20
72338;DHT22;60294;64.134;-21.862;2022-08-02T07:34:15;9.70;68.90
72338;DHT22;60294;64.134;-21.862;2022-08-02T07:36:41;9.70;68.90
72338;DHT22;60294;64.134;-21.862;2022-08-02T07:39:07;9.80;68.30
72338;DHT22;60294;64.134;-21.862;2022-08-02T07:41:33;10.00;68.30
72338;DHT22;60294;64.134;-21.862;2022-08-02T07:43:59;10.10;67.40
72338;DHT22;60294;64.134;-21.862;2022-08-02T07:46:25;10.10;67.90
72338;DHT22;60294;64.134;-21.862;2022-08-02T07:48:51;10.20;67.90
72338;DHT22;60294;64.134;-21.862;2022-08-02T07:51:23;10.20;67.60
72338;DHT22;60294;64.134;-21.862;2022-08-02T07:53:48;10.30;66.80
72338;DHT22;60294;64.134;-21.862;2022-08-02T07:56:14;10.40;66.40
72338;DHT22;60294;64.134;-21.862;2022-08-02T07:58:41;10.50;66.00
72338;DHT22;60294;64.134;-21.862;2022-08-02T08:01:07;10.60;65.30
72338;DHT22;60294;64.134;-21.862;2022-08-02T08:03:33;10.70;65.80
72338;DHT22;60294;64.134;-21.862;2022-08-02T08:05:59;10.80;65.60
72338;DHT22;60294;64.134;-21.862;2022-08-02T08:08:25;10.80;63.20
72338;DHT22;60294;64.134;-21.862;2022-08-02T08:10:51;10.90;62.20
72338;DHT22;60294;64.134;-21.862;2022-08-02T08:13:16;10.90;63.50
72338;DHT22;60294;64.134;-21.862;2022-08-02T08:15:43;11.00;64.30
72338;DHT22;60294;64.134;-21.862;2022-08-02T08:18:09;10.90;64.00
72338;DHT22;60294;64.134;-21.862;2022-08-02T08:20:35;10.90;63.60
72338;DHT22;60294;64.134;-21.862;2022-08-02T08:23:00;10.80;63.60
72338;DHT22;60294;64.134;-21.862;2022-08-02T08:25:26;10.80;64.50
72338;DHT22;60294;64.134;-21.862;2022-08-02T08:27:52;11.10;62.80
72338;DHT22;60294;64.134;-21.862;2022-08-02T08:30:19;11.10;61.30
72338;DHT22;60294;64.134;-21.862;2022-08-02T08:32:46;11.00;61.80
72338;DHT22;60294;64.134;-21.862;2022-08-02T08:35:13;11.10;62.20
72338;DHT22;60294;64.134;-21.862;2022-08-02T08:37:39;11.10;62.00
72338;DHT22;60294;64.134;-21.862;2022-08-02T08:40:06;11.00;62.10
72338;DHT22;60294;64.134;-21.862;2022-08-02T08:42:33;11.10;63.30
72338;DHT22;60294;64.134;-21.862;2022-08-02T08:45:00;11.10;63.20
72338;DHT22;60294;64.134;-21.862;2022-08-02T08:47:38;11.10;62.60
72338;DHT22;60294;64.134;-21.862;2022-08-02T08:52:40;11.10;62.40
72338;DHT22;60294;64.134;-21.862;2022-08-02T08:55:08;11.10;63.80
72338;DHT22;60294;64.134;-21.862;2022-08-02T08:57:40;11.10;64.10
72338;DHT22;60294;64.134;-21.862;2022-08-02T09:00:11;11.10;63.30
72338;DHT22;60294;64.134;-21.862;2022-08-02T09:02:42;11.10;62.90
72338;DHT22;60294;64.134;-21.862;2022-08-02T09:05:13;11.10;62.20
72338;DHT22;60294;64.134;-21.862;2022-08-02T09:07:39;11.10;63.40
72338;DHT22;60294;64.134;-21.862;2022-08-02T09:10:36;11.20;63.90
72338;DHT22;60294;64.134;-21.862;2022-08-02T09:13:22;11.10;63.80
72338;DHT22;60294;64.134;-21.862;2022-08-02T09:16:02;11.10;64.00
72338;DHT22;60294;64.134;-21.862;2022-08-02T09:18:30;11.10;63.80
72338;DHT22;60294;64.134;-21.862;2022-08-02T09:20:59;11.10;63.50
72338;DHT22;60294;64.134;-21.862;2022-08-02T09:23:25;11.10;62.90
72338;DHT22;60294;64.134;-21.862;2022-08-02T09:26:00;11.20;63.90
72338;DHT22;60294;64.134;-21.862;2022-08-02T09:28:32;11.20;63.60
72338;DHT22;60294;64.134;-21.862;2022-08-02T09:31:05;11.10;63.70
72338;DHT22;60294;64.134;-21.862;2022-08-02T09:33:31;11.00;64.10
72338;DHT22;60294;64.134;-21.862;2022-08-02T09:36:04;11.10;64.00
72338;DHT22;60294;64.134;-21.862;2022-08-02T09:38:30;11.10;63.20
72338;DHT22;60294;64.134;-21.862;2022-08-02T09:40:56;11.50;63.00
72338;DHT22;60294;64.134;-21.862;2022-08-02T09:43:37;11.80;62.30
72338;DHT22;60294;64.134;-21.862;2022-08-02T09:46:15;11.80;62.40
72338;DHT22;60294;64.134;-21.862;2022-08-02T09:49:01;11.80;62.10
72338;DHT22;60294;64.134;-21.862;2022-08-02T09:51:33;11.90;61.90
72338;DHT22;60294;64.134;-21.862;2022-08-02T09:54:02;11.80;61.50
72338;DHT22;60294;64.134;-21.862;2022-08-02T09:56:43;11.80;61.80
72338;DHT22;60294;64.134;-21.862;2022-08-02T09:59:09;12.00;61.80
72338;DHT22;60294;64.134;-21.862;2022-08-02T10:01:36;12.10;61.00
72338;DHT22;60294;64.134;-21.862;2022-08-02T10:04:13;12.30;60.60
72338;DHT22;60294;64.134;-21.862;2022-08-02T10:06:41;12.40;59.50
72338;DHT22;60294;64.134;-21.862;2022-08-02T10:09:09;12.60;60.10
72338;DHT22;60294;64.134;-21.862;2022-08-02T10:11:35;12.80;59.00
72338;DHT22;60294;64.134;-21.862;2022-08-02T10:14:03;12.90;58.30
72338;DHT22;60294;64.134;-21.862;2022-08-02T10:16:33;12.90;57.40
72338;DHT22;60294;64.134;-21.862;2022-08-02T10:18:59;12.70;57.40
72338;DHT22;60294;64.134;-21.862;2022-08-02T10:21:33;12.60;58.20
72338;DHT22;60294;64.134;-21.862;2022-08-02T10:24:09;12.30;58.50
72338;DHT22;60294;64.134;-21.862;2022-08-02T10:26:39;12.20;58.70
72338;DHT22;60294;64.134;-21.862;2022-08-02T10:29:05;12.20;58.50
72338;DHT22;60294;64.134;-21.862;2022-08-02T10:31:37;12.10;59.80
72338;DHT22;60294;64.134;-21.862;2022-08-02T10:34:09;12.10;58.00
72338;DHT22;60294;64.134;-21.862;2022-08-02T10:36:38;12.10;58.20
72338;DHT22;60294;64.134;-21.862;2022-08-02T10:39:04;12.20;58.10
72338;DHT22;60294;64.134;-21.862;2022-08-02T10:41:48;12.20;59.30
72338;DHT22;60294;64.134;-21.862;2022-08-02T10:44:31;12.10;58.00
72338;DHT22;60294;64.134;-21.862;2022-08-02T10:49:59;11.90;58.20
72338;DHT22;60294;64.134;-21.862;2022-08-02T10:52:26;12.00;58.70
72338;DHT22;60294;64.134;-21.862;2022-08-02T10:54:57;12.00;59.50
72338;DHT22;60294;64.134;-21.862;2022-08-02T10:57:34;11.90;59.00
72338;DHT22;60294;64.134;-21.862;2022-08-02T11:00:25;11.90;59.20
72338;DHT22;60294;64.134;-21.862;2022-08-02T11:02:51;11.80;60.90
72338;DHT22;60294;64.134;-21.862;2022-08-02T11:07:55;11.70;60.50
72338;DHT22;60294;64.134;-21.862;2022-08-02T11:10:33;12.00;59.40
72338;DHT22;60294;64.134;-21.862;2022-08-02T11:13:10;12.00;59.60
72338;DHT22;60294;64.134;-21.862;2022-08-02T11:16:02;12.40;59.70
72338;DHT22;60294;64.134;-21.862;2022-08-02T11:21:27;12.60;58.40
72338;DHT22;60294;64.134;-21.862;2022-08-02T11:23:54;13.00;54.60
72338;DHT22;60294;64.134;-21.862;2022-08-02T11:29:03;13.00;54.20
72338;DHT22;60294;64.134;-21.862;2022-08-02T11:31:37;13.10;54.30
72338;DHT22;60294;64.134;-21.862;2022-08-02T11:34:04;13.10;52.60
72338;DHT22;60294;64.134;-21.862;2022-08-02T11:36:30;13.30;53.80
72338;DHT22;60294;64.134;-21.862;2022-08-02T11:39:13;13.40;53.60
72338;DHT22;60294;64.134;-21.862;2022-08-02T11:41:39;13.50;53.50
72338;DHT22;60294;64.134;-21.862;2022-08-02T11:44:05;13.50;51.70
72338;DHT22;60294;64.134;-21.862;2022-08-02T11:46:31;13.50;51.00
72338;DHT22;60294;64.134;-21.862;2022-08-02T11:49:01;13.60;51.90
72338;DHT22;60294;64.134;-21.862;2022-08-02T11:51:35;13.60;52.80
72338;DHT22;60294;64.134;-21.862;2022-08-02T11:54:01;13.60;52.70
72338;DHT22;60294;64.134;-21.862;2022-08-02T11:56:28;13.90;53.00
72338;DHT22;60294;64.134;-21.862;2022-08-02T11:59:08;13.90;53.60
72338;DHT22;60294;64.134;-21.862;2022-08-02T12:01:37;13.90;54.50
72338;DHT22;60294;64.134;-21.862;2022-08-02T12:04:04;13.90;53.20
72338;DHT22;60294;64.134;-21.862;2022-08-02T12:06:32;14.10;53.30
72338;DHT22;60294;64.134;-21.862;2022-08-02T12:09:05;14.00;53.20
72338;DHT22;60294;64.134;-21.862;2022-08-02T12:11:31;14.10;53.80
72338;DHT22;60294;64.134;-21.862;2022-08-02T12:13:57;14.40;52.50
72338;DHT22;60294;64.134;-21.862;2022-08-02T12:16:24;14.60;52.60
72338;DHT22;60294;64.134;-21.862;2022-08-02T12:19:08;14.90;52.40
72338;DHT22;60294;64.134;-21.862;2022-08-02T12:21:44;15.00;51.70
72338;DHT22;60294;64.134;-21.862;2022-08-02T12:24:11;14.60;50.80
72338;DHT22;60294;64.134;-21.862;2022-08-02T12:26:44;14.70;51.40
72338;DHT22;60294;64.134;-21.862;2022-08-02T12:29:11;14.70;50.80
72338;DHT22;60294;64.134;-21.862;2022-08-02T12:31:45;14.60;51.10
72338;DHT22;60294;64.134;-21.862;2022-08-02T12:34:18;15.00;51.20
72338;DHT22;60294;64.134;-21.862;2022-08-02T12:39:38;15.10;49.50
72338;DHT22;60294;64.134;-21.862;2022-08-02T12:42:06;15.10;50.00
72338;DHT22;60294;64.134;-21.862;2022-08-02T12:44:32;15.10;50.20
72338;DHT22;60294;64.134;-21.862;2022-08-02T12:47:00;14.70;51.20
72338;DHT22;60294;64.134;-21.862;2022-08-02T12:49:26;14.70;51.10
72338;DHT22;60294;64.134;-21.862;2022-08-02T12:51:52;15.00;51.30
72338;DHT22;60294;64.134;-21.862;2022-08-02T12:54:21;14.80;51.20
72338;DHT22;60294;64.134;-21.862;2022-08-02T12:56:48;14.40;52.60
72338;DHT22;60294;64.134;-21.862;2022-08-02T12:59:14;14.80;51.00
72338;DHT22;60294;64.134;-21.862;2022-08-02T13:01:40;15.10;51.50
72338;DHT22;60294;64.134;-21.862;2022-08-02T13:04:07;15.40;49.90
72338;DHT22;60294;64.134;-21.862;2022-08-02T13:06:33;15.40;49.90
72338;DHT22;60294;64.134;-21.862;2022-08-02T13:08:59;15.20;50.40
72338;DHT22;60294;64.134;-21.862;2022-08-02T13:11:26;15.50;50.00
72338;DHT22;60294;64.134;-21.862;2022-08-02T13:13:53;15.80;49.90
72338;DHT22;60294;64.134;-21.862;2022-08-02T13:16:19;16.40;48.20
72338;DHT22;60294;64.134;-21.862;2022-08-02T13:18:44;16.60;47.80
72338;DHT22;60294;64.134;-21.862;2022-08-02T13:21:11;16.20;47.50
72338;DHT22;60294;64.134;-21.862;2022-08-02T13:23:37;16.60;48.50
72338;DHT22;60294;64.134;-21.862;2022-08-02T13:26:04;16.10;48.90
72338;DHT22;60294;64.134;-21.862;2022-08-02T13:28:29;15.90;49.30
72338;DHT22;60294;64.134;-21.862;2022-08-02T13:30:55;15.20;50.30
72338;DHT22;60294;64.134;-21.862;2022-08-02T13:33:21;14.90;51.60
72338;DHT22;60294;64.134;-21.862;2022-08-02T13:35:47;14.80;51.60
72338;DHT22;60294;64.134;-21.862;2022-08-02T13:38:13;14.80;51.90
72338;DHT22;60294;64.134;-21.862;2022-08-02T13:40:40;14.50;52.00
72338;DHT22;60294;64.134;-21.862;2022-08-02T13:43:25;14.50;51.90
72338;DHT22;60294;64.134;-21.862;2022-08-02T13:45:51;15.50;50.20
72338;DHT22;60294;64.134;-21.862;2022-08-02T13:48:17;16.70;48.80
72338;DHT22;60294;64.134;-21.862;2022-08-02T13:50:43;17.30;45.70
72338;DHT22;60294;64.134;-21.862;2022-08-02T13:53:08;18.10;43.90
72338;DHT22;60294;64.134;-21.862;2022-08-02T13:55:34;18.60;42.60
72338;DHT22;60294;64.134;-21.862;2022-08-02T13:58:01;17.70;45.20
72338;DHT22;60294;64.134;-21.862;2022-08-02T14:00:29;16.90;47.30
72338;DHT22;60294;64.134;-21.862;2022-08-02T14:02:55;16.50;48.20
72338;DHT22;60294;64.134;-21.862;2022-08-02T14:05:20;16.20;48.90
72338;DHT22;60294;64.134;-21.862;2022-08-02T14:07:46;15.90;50.40
72338;DHT22;60294;64.134;-21.862;2022-08-02T14:10:12;15.60;50.20
72338;DHT22;60294;64.134;-21.862;2022-08-02T14:12:38;15.10;50.60
72338;DHT22;60294;64.134;-21.862;2022-08-02T14:15:04;15.60;50.60
72338;DHT22;60294;64.134;-21.862;2022-08-02T14:17:30;17.20;46.80
72338;DHT22;60294;64.134;-21.862;2022-08-02T14:19:56;17.70;45.30
72338;DHT22;60294;64.134;-21.862;2022-08-02T14:22:21;17.90;43.90
72338;DHT22;60294;64.134;-21.862;2022-08-02T14:24:47;18.80;42.70
72338;DHT22;60294;64.134;-21.862;2022-08-02T14:27:13;19.30;41.10
72338;DHT22;60294;64.134;-21.862;2022-08-02T14:29:40;18.60;42.30
72338;DHT22;60294;64.134;-21.862;2022-08-02T14:32:06;17.00;46.30
72338;DHT22;60294;64.134;-21.862;2022-08-02T14:34:32;16.50;47.30
72338;DHT22;60294;64.134;-21.862;2022-08-02T14:36:58;15.60;49.60
72338;DHT22;60294;64.134;-21.862;2022-08-02T14:39:23;15.20;51.70
72338;DHT22;60294;64.134;-21.862;2022-08-02T14:41:49;15.10;52.00
72338;DHT22;60294;64.134;-21.862;2022-08-02T14:44:15;15.20;50.60
72338;DHT22;60294;64.134;-21.862;2022-08-02T14:46:41;15.20;50.60
72338;DHT22;60294;64.134;-21.862;2022-08-02T14:49:08;15.10;51.50
72338;DHT22;60294;64.134;-21.862;2022-08-02T14:51:35;15.10;51.20
72338;DHT22;60294;64.134;-21.862;2022-08-02T14:54:04;14.80;51.20
72338;DHT22;60294;64.134;-21.862;2022-08-02T14:56:30;15.00;51.70
72338;DHT22;60294;64.134;-21.862;2022-08-02T14:58:57;14.80;51.60
72338;DHT22;60294;64.134;-21.862;2022-08-02T15:01:22;14.50;51.40
72338;DHT22;60294;64.134;-21.862;2022-08-02T15:03:49;14.40;52.10
72338;DHT22;60294;64.134;-21.862;2022-08-02T15:06:15;14.40;53.40
72338;DHT22;60294;64.134;-21.862;2022-08-02T15:08:41;14.40;51.90
72338;DHT22;60294;64.134;-21.862;2022-08-02T15:11:07;14.40;52.10
72338;DHT22;60294;64.134;-21.862;2022-08-02T15:13:33;15.60;50.00
72338;DHT22;60294;64.134;-21.862;2022-08-02T15:15:58;17.10;46.50
72338;DHT22;60294;64.134;-21.862;2022-08-02T15:18:24;16.90;45.20
72338;DHT22;60294;64.134;-21.862;2022-08-02T15:20:50;16.10;46.90
72338;DHT22;60294;64.134;-21.862;2022-08-02T15:23:16;15.60;48.40
72338;DHT22;60294;64.134;-21.862;2022-08-02T15:25:42;15.50;48.10
72338;DHT22;60294;64.134;-21.862;2022-08-02T15:28:08;15.10;49.70
72338;DHT22;60294;64.134;-21.862;2022-08-02T15:30:35;14.90;50.10
72338;DHT22;60294;64.134;-21.862;2022-08-02T15:33:02;14.30;50.40
72338;DHT22;60294;64.134;-21.862;2022-08-02T15:35:28;14.10;51.20
72338;DHT22;60294;64.134;-21.862;2022-08-02T15:37:54;14.10;52.90
72338;DHT22;60294;64.134;-21.862;2022-08-02T15:40:21;15.60;49.80
72338;DHT22;60294;64.134;-21.862;2022-08-02T15:42:47;17.20;46.00
72338;DHT22;60294;64.134;-21.862;2022-08-02T15:45:13;18.50;42.00
72338;DHT22;60294;64.134;-21.862;2022-08-02T15:47:40;17.60;43.40
72338;DHT22;60294;64.134;-21.862;2022-08-02T15:50:06;16.90;44.90
72338;DHT22;60294;64.134;-21.862;2022-08-02T15:52:31;15.90;46.70